createdAt,value
2018-10-05T00:01:35.592Z,6.23
2018-10-05T00:04:05.000Z,6.17
2018-10-05T00:06:34.326Z,5.17
2018-10-05T00:09:04.526Z,5.57
2018-10-05T00:11:34.337Z,6.87
2018-10-05T00:14:03.633Z,5.87
2018-10-05T00:16:33.071Z,5.90
2018-10-05T00:19:02.289Z,5.93
2018-10-05T00:21:32.464Z,6.73
2018-10-05T00:24:02.536Z,5.73
2018-10-05T00:26:32.364Z,6.50
2018-10-05T00:29:01.806Z,6.73
2018-10-05T00:31:31.165Z,5.93
2018-10-05T00:34:01.484Z,5.80
2018-10-05T00:36:30.513Z,6.53
2018-10-05T00:38:59.529Z,5.77
2018-10-05T00:41:28.535Z,5.63
2018-10-05T00:43:57.924Z,6.10
2018-10-05T00:46:27.349Z,7.17
2018-10-05T00:48:56.452Z,6.63
2018-10-05T00:51:26.962Z,7.87
2018-10-05T00:53:56.156Z,7.00
2018-10-05T00:56:26.025Z,7.67
2018-10-05T00:58:55.345Z,5.80
2018-10-05T01:01:24.773Z,5.67
2018-10-05T01:03:55.042Z,8.53
2018-10-05T01:06:24.152Z,7.27
2018-10-05T01:08:53.671Z,6.80
2018-10-05T01:11:23.716Z,6.00
2018-10-05T01:13:53.128Z,6.83
2018-10-05T01:16:22.802Z,6.30
2018-10-05T01:18:51.997Z,5.80
2018-10-05T01:21:21.233Z,6.00
2018-10-05T01:23:52.811Z,5.23
2018-10-05T01:26:22.333Z,6.97
2018-10-05T01:28:52.483Z,6.03
2018-10-05T01:31:24.405Z,6.67
2018-10-05T01:33:56.095Z,7.00
2018-10-05T01:36:26.169Z,5.90
2018-10-05T01:38:55.906Z,5.97
2018-10-05T01:41:25.854Z,6.83
2018-10-05T01:43:56.188Z,6.20
2018-10-05T01:46:27.320Z,6.87
2018-10-05T01:48:56.676Z,7.93
2018-10-05T01:51:33.898Z,7.27
2018-10-05T01:54:04.361Z,6.70
2018-10-05T01:56:35.405Z,5.27
2018-10-05T01:59:04.791Z,6.53
2018-10-05T02:01:33.926Z,5.70
2018-10-05T02:04:03.272Z,5.80
2018-10-05T02:06:33.207Z,6.83
2018-10-05T02:09:05.463Z,6.60
2018-10-05T02:11:35.362Z,5.60
2018-10-05T02:14:05.297Z,6.53
2018-10-05T02:16:34.885Z,6.17
2018-10-05T02:19:04.452Z,6.47
2018-10-05T02:21:37.043Z,6.50
2018-10-05T02:24:07.637Z,5.97
2018-10-05T02:26:38.589Z,5.33
2018-10-05T02:29:07.783Z,5.53
2018-10-05T02:31:36.740Z,6.03
2018-10-05T02:34:05.943Z,5.63
2018-10-05T02:36:37.065Z,6.50
2018-10-05T02:39:08.497Z,5.90
2018-10-05T02:41:40.326Z,5.47
2018-10-05T02:44:09.523Z,4.70
2018-10-05T02:46:39.012Z,5.40
2018-10-05T02:49:07.991Z,4.70
2018-10-05T02:51:37.233Z,5.63
2018-10-05T02:54:07.466Z,4.70
2018-10-05T02:56:36.638Z,5.03
2018-10-05T02:59:07.129Z,5.13
2018-10-05T03:01:47.540Z,6.17
2018-10-05T03:04:16.876Z,4.23
2018-10-05T03:06:50.203Z,4.60
2018-10-05T03:09:19.646Z,5.60
2018-10-05T03:11:52.391Z,8.70
2018-10-05T03:14:22.712Z,6.03
2018-10-05T03:16:53.990Z,4.60
2018-10-05T03:19:23.855Z,5.40
2018-10-05T03:21:55.111Z,4.33
2018-10-05T03:24:26.743Z,6.03
2018-10-05T03:27:01.826Z,5.83
2018-10-05T03:29:33.151Z,5.00
2018-10-05T03:32:05.141Z,4.93
2018-10-05T03:34:34.135Z,4.83
2018-10-05T03:37:03.105Z,5.43
2018-10-05T03:39:32.223Z,8.13
2018-10-05T03:42:01.329Z,14.30
2018-10-05T03:44:31.917Z,6.53
2018-10-05T03:47:02.291Z,7.13
2018-10-05T03:49:34.594Z,8.47
2018-10-05T03:52:05.324Z,6.67
2018-10-05T03:54:35.211Z,7.00
2018-10-05T03:57:07.327Z,5.47
2018-10-05T03:59:37.549Z,6.03
2018-10-05T04:02:10.237Z,6.57
2018-10-05T04:04:40.436Z,6.17
2018-10-05T04:07:12.312Z,7.00
2018-10-05T04:09:44.794Z,7.20
2018-10-05T04:12:14.962Z,6.80
2018-10-05T04:14:45.395Z,7.67
2018-10-05T04:17:18.159Z,6.50
2018-10-05T04:19:47.469Z,6.63
2018-10-05T04:22:26.633Z,6.80
2018-10-05T04:24:56.037Z,5.50
2018-10-05T04:27:26.010Z,5.77
2018-10-05T04:29:56.090Z,5.97
2018-10-05T04:32:25.869Z,6.83
2018-10-05T04:34:55.201Z,8.37
2018-10-05T04:37:24.575Z,7.67
2018-10-05T04:39:53.976Z,6.20
2018-10-05T04:42:23.288Z,7.47
2018-10-05T04:44:52.700Z,8.57
2018-10-05T04:47:21.814Z,6.70
2018-10-05T04:49:50.922Z,6.07
2018-10-05T04:52:20.529Z,5.60
2018-10-05T04:54:49.776Z,5.73
2018-10-05T04:57:19.109Z,5.53
2018-10-05T04:59:53.139Z,8.10
2018-10-05T05:02:27.312Z,6.93
2018-10-05T05:04:58.640Z,5.47
2018-10-05T05:07:31.745Z,5.17
2018-10-05T05:10:04.900Z,9.83
2018-10-05T05:12:37.634Z,7.40
2018-10-05T05:15:10.702Z,6.83
2018-10-05T05:17:46.592Z,6.83
2018-10-05T05:20:18.645Z,6.57
2018-10-05T05:22:54.273Z,6.27
2018-10-05T05:25:23.982Z,6.60
2018-10-05T05:27:54.506Z,6.27
2018-10-05T05:30:23.931Z,6.53
2018-10-05T05:32:53.241Z,5.63
2018-10-05T05:35:25.676Z,6.33
2018-10-05T05:37:55.849Z,6.47
2018-10-05T05:40:25.210Z,6.60
2018-10-05T05:42:54.419Z,6.20
2018-10-05T05:45:23.776Z,6.43
2018-10-05T05:47:53.314Z,5.80
2018-10-05T05:50:24.719Z,7.40
2018-10-05T05:52:55.145Z,6.73
2018-10-05T05:55:24.496Z,6.60
2018-10-05T05:57:54.524Z,6.40
2018-10-05T06:00:24.887Z,6.30
2018-10-05T06:02:55.060Z,7.30
2018-10-05T06:05:25.723Z,7.00
2018-10-05T06:07:58.027Z,5.97
2018-10-05T06:10:28.157Z,5.47
2018-10-05T06:12:57.503Z,4.80
2018-10-05T06:15:27.617Z,4.50
2018-10-05T06:17:57.582Z,4.60
2018-10-05T06:20:28.366Z,4.07
2018-10-05T06:23:00.265Z,4.13
2018-10-05T06:25:31.791Z,4.10
2018-10-05T06:28:02.637Z,3.80
2018-10-05T06:30:32.748Z,4.27
2018-10-05T06:33:03.003Z,3.90
2018-10-05T06:35:32.391Z,4.40
2018-10-05T06:38:01.905Z,4.00
2018-10-05T06:40:32.304Z,3.77
2018-10-05T06:43:01.605Z,3.40
2018-10-05T06:45:30.843Z,3.63
2018-10-05T06:48:00.143Z,3.50
2018-10-05T06:50:29.084Z,3.40
2018-10-05T06:52:58.281Z,3.10
2018-10-05T06:55:27.331Z,2.90
2018-10-05T06:57:56.698Z,3.40
2018-10-05T07:00:26.419Z,3.37
2018-10-05T07:02:55.673Z,3.83
2018-10-05T07:05:25.652Z,2.90
2018-10-05T07:07:55.037Z,2.80
2018-10-05T07:10:24.246Z,3.03
2018-10-05T07:12:53.366Z,2.53
2018-10-05T07:15:22.591Z,2.30
2018-10-05T07:17:54.188Z,1.80
2018-10-05T07:20:23.549Z,2.17
2018-10-05T07:22:52.947Z,1.60
2018-10-05T07:25:22.226Z,1.47
2018-10-05T07:27:51.462Z,1.83
2018-10-05T07:30:20.651Z,2.00
2018-10-05T07:32:50.052Z,2.20
2018-10-05T07:35:19.874Z,2.00
2018-10-05T07:37:49.406Z,2.10
2018-10-05T07:40:18.764Z,2.15
2018-10-05T07:42:48.228Z,2.12
2018-10-05T07:45:17.566Z,2.05
2018-10-05T07:47:46.948Z,1.75
2018-10-05T07:50:16.285Z,1.80
2018-10-05T07:52:45.371Z,2.02
2018-10-05T07:55:14.460Z,2.60
2018-10-05T07:57:43.983Z,2.50
2018-10-05T08:00:13.085Z,2.05
2018-10-05T08:02:42.483Z,2.70
2018-10-05T08:05:11.778Z,2.95
2018-10-05T08:07:41.193Z,3.10
2018-10-05T08:10:10.811Z,2.40
2018-10-05T08:12:40.222Z,2.42
2018-10-05T08:15:09.741Z,2.37
2018-10-05T08:17:39.386Z,2.50
2018-10-05T08:20:08.966Z,2.42
2018-10-05T08:22:38.307Z,2.40
2018-10-05T08:25:08.003Z,2.58
2018-10-05T08:27:37.505Z,2.27
2018-10-05T08:30:07.599Z,2.50
2018-10-05T08:32:37.016Z,2.40
2018-10-05T08:35:06.384Z,2.52
2018-10-05T08:37:35.795Z,2.70
2018-10-05T08:40:05.882Z,2.42
2018-10-05T08:42:35.453Z,2.45
2018-10-05T08:45:04.898Z,2.85
2018-10-05T08:47:34.434Z,2.42
2018-10-05T08:50:03.731Z,2.47
2018-10-05T08:52:33.644Z,2.40
2018-10-05T08:55:02.884Z,3.00
2018-10-05T08:57:32.501Z,2.90
2018-10-05T09:00:01.619Z,2.50
2018-10-05T09:02:30.833Z,2.15
2018-10-05T09:05:00.107Z,2.62
2018-10-05T09:07:29.416Z,2.37
2018-10-05T09:09:58.521Z,3.22
2018-10-05T09:12:27.882Z,2.22
2018-10-05T09:14:57.944Z,2.67
2018-10-05T09:17:27.289Z,2.67
2018-10-05T09:19:56.699Z,2.05
2018-10-05T09:22:26.133Z,2.80
2018-10-05T09:24:55.684Z,2.87
2018-10-05T09:27:25.008Z,2.50
2018-10-05T09:29:54.347Z,3.33
2018-10-05T09:32:24.081Z,3.10
2018-10-05T09:34:54.107Z,2.22
2018-10-05T09:37:23.459Z,3.55
2018-10-05T09:39:52.872Z,2.67
2018-10-05T09:42:24.294Z,2.77
2018-10-05T09:44:54.814Z,3.17
2018-10-05T09:47:24.875Z,2.87
2018-10-05T09:49:54.246Z,2.70
2018-10-05T09:52:23.723Z,2.92
2018-10-05T09:54:53.137Z,2.87
2018-10-05T09:57:25.375Z,2.60
2018-10-05T09:59:54.908Z,3.27
2018-10-05T10:02:29.506Z,2.92
2018-10-05T10:04:58.859Z,3.22
2018-10-05T10:07:29.145Z,2.55
2018-10-05T10:09:58.401Z,3.12
2018-10-05T10:12:27.917Z,3.12
2018-10-05T10:14:57.278Z,3.33
2018-10-05T10:17:27.149Z,2.72
2018-10-05T10:19:56.396Z,3.00
2018-10-05T10:22:25.764Z,2.55
2018-10-05T10:24:55.095Z,3.33
2018-10-05T10:27:24.410Z,2.85
2018-10-05T10:29:54.806Z,2.90
2018-10-05T10:32:24.174Z,2.67
2018-10-05T10:34:53.851Z,3.25
2018-10-05T10:37:23.232Z,2.75
2018-10-05T10:39:52.720Z,2.60
2018-10-05T10:42:22.100Z,3.08
2018-10-05T10:44:51.160Z,2.85
2018-10-05T10:47:20.390Z,3.27
2018-10-05T10:49:49.764Z,2.98
2018-10-05T10:52:19.317Z,2.62
2018-10-05T10:54:48.642Z,2.45
2018-10-05T10:57:17.959Z,3.08
2018-10-05T10:59:47.395Z,3.55
2018-10-05T11:02:16.756Z,2.52
2018-10-05T11:04:46.048Z,3.00
2018-10-05T11:07:15.457Z,3.33
2018-10-05T11:09:44.897Z,3.12
2018-10-05T11:12:13.998Z,3.62
2018-10-05T11:14:44.088Z,2.70
2018-10-05T11:17:13.459Z,2.80
2018-10-05T11:19:43.316Z,3.52
2018-10-05T11:22:12.536Z,3.20
2018-10-05T11:24:41.902Z,3.00
2018-10-05T11:27:11.617Z,2.70
2018-10-05T11:29:41.418Z,2.60
2018-10-05T11:32:10.786Z,3.02
2018-10-05T11:34:40.076Z,3.08
2018-10-05T11:37:09.385Z,2.92
2018-10-05T11:39:38.591Z,2.60
2018-10-05T11:42:08.617Z,3.10
2018-10-05T11:44:37.869Z,2.70
2018-10-05T11:47:07.206Z,2.98
2018-10-05T11:49:36.591Z,2.90
2018-10-05T11:52:06.088Z,2.33
2018-10-05T11:54:35.304Z,2.40
2018-10-05T11:57:04.879Z,3.45
2018-10-05T11:59:34.282Z,2.40
2018-10-05T12:02:03.608Z,2.37
2018-10-05T12:04:34.350Z,2.12
2018-10-05T12:07:03.609Z,2.67
2018-10-05T12:09:32.791Z,2.50
2018-10-05T12:12:02.207Z,2.58
2018-10-05T12:14:31.606Z,2.00
2018-10-05T12:17:01.002Z,2.50
2018-10-05T12:19:30.421Z,2.65
2018-10-05T12:21:59.949Z,1.80
2018-10-05T12:24:29.358Z,2.15
2018-10-05T12:26:59.038Z,1.72
2018-10-05T12:29:28.438Z,1.90
2018-10-05T12:31:58.302Z,2.10
2018-10-05T12:34:27.721Z,2.27
2018-10-05T12:36:57.162Z,1.97
2018-10-05T12:39:26.544Z,2.12
2018-10-05T12:41:56.077Z,1.87
2018-10-05T12:44:25.507Z,2.43
2018-10-05T12:46:54.932Z,2.10
2018-10-05T12:49:24.527Z,1.90
2018-10-05T12:51:53.942Z,1.90
2018-10-05T12:54:23.630Z,1.90
2018-10-05T12:56:52.793Z,2.30
2018-10-05T12:59:23.344Z,1.60
2018-10-05T13:01:52.509Z,2.00
2018-10-05T13:04:21.718Z,2.10
2018-10-05T13:06:50.972Z,2.00
2018-10-05T13:09:20.376Z,2.30
2018-10-05T13:11:50.751Z,1.73
2018-10-05T13:14:20.044Z,1.90
2018-10-05T13:16:49.462Z,2.60
2018-10-05T13:19:19.328Z,2.60
2018-10-05T13:21:48.663Z,1.77
2018-10-05T13:24:17.893Z,1.90
2018-10-05T13:26:47.571Z,2.67
2018-10-05T13:29:16.886Z,2.00
2018-10-05T13:31:47.083Z,1.73
2018-10-05T13:34:16.358Z,2.00
2018-10-05T13:36:45.634Z,2.27
2018-10-05T13:39:14.977Z,1.90
2018-10-05T13:41:45.868Z,1.83
2018-10-05T13:44:15.216Z,1.70
2018-10-05T13:46:45.000Z,1.43
2018-10-05T13:49:14.481Z,1.70
2018-10-05T13:51:44.128Z,1.60
2018-10-05T13:54:13.581Z,1.80
2018-10-05T13:56:43.167Z,1.47
2018-10-05T13:59:14.256Z,1.83
2018-10-05T14:01:43.524Z,1.50
2018-10-05T14:04:12.844Z,1.70
2018-10-05T14:06:42.133Z,2.23
2018-10-05T14:09:11.792Z,1.60
2018-10-05T14:11:41.158Z,2.20
2018-10-05T14:14:10.463Z,1.40
2018-10-05T14:16:39.633Z,1.40
2018-10-05T14:19:08.965Z,1.67
2018-10-05T14:21:39.360Z,1.50
2018-10-05T14:24:08.832Z,1.47
2018-10-05T14:26:38.171Z,1.70
2018-10-05T14:29:07.659Z,1.63
2018-10-05T14:31:36.969Z,1.63
2018-10-05T14:34:06.241Z,1.43
2018-10-05T14:36:35.467Z,1.87
2018-10-05T14:39:07.251Z,1.50
2018-10-05T14:41:36.636Z,1.70
2018-10-05T14:44:07.750Z,1.33
2018-10-05T14:46:37.181Z,1.70
2018-10-05T14:49:06.385Z,1.70
2018-10-05T14:51:35.719Z,1.80
2018-10-05T14:54:05.057Z,1.37
2018-10-05T14:56:35.180Z,1.40
2018-10-05T14:59:04.434Z,1.70
2018-10-05T15:01:34.432Z,1.90
2018-10-05T15:04:03.714Z,1.80
2018-10-05T15:06:33.035Z,1.80
2018-10-05T15:09:02.298Z,1.43
2018-10-05T15:11:31.885Z,1.30
2018-10-05T15:14:01.252Z,1.93
2018-10-05T15:16:30.526Z,1.83
2018-10-05T15:18:59.889Z,1.70
2018-10-05T15:21:29.285Z,1.80
2018-10-05T15:23:58.975Z,1.60
2018-10-05T15:26:28.241Z,1.37
2018-10-05T15:28:57.578Z,1.60
2018-10-05T15:31:27.096Z,1.63
2018-10-05T15:33:57.973Z,1.40
2018-10-05T15:36:27.185Z,1.80
2018-10-05T15:38:56.565Z,1.73
2018-10-05T15:41:26.538Z,1.77
2018-10-05T15:43:55.986Z,1.57
2018-10-05T15:46:36.479Z,2.10
2018-10-05T15:49:06.020Z,1.90
2018-10-05T15:51:35.329Z,1.80
2018-10-05T15:54:04.562Z,1.73
2018-10-05T15:56:33.847Z,1.60
2018-10-05T15:59:03.100Z,2.00
2018-10-05T16:01:32.335Z,1.90
2018-10-05T16:04:01.632Z,1.90
2018-10-05T16:06:30.837Z,1.70
2018-10-05T16:09:00.574Z,1.90
2018-10-05T16:11:30.095Z,1.50
2018-10-05T16:13:59.926Z,1.73
2018-10-05T16:16:29.288Z,1.97
2018-10-05T16:18:58.599Z,1.70
2018-10-05T16:21:28.214Z,1.87
2018-10-05T16:23:58.630Z,1.97
2018-10-05T16:26:28.195Z,1.90
2018-10-05T16:28:57.662Z,1.77
2018-10-05T16:31:27.803Z,1.70
2018-10-05T16:33:57.267Z,1.73
2018-10-05T16:36:27.881Z,2.30
2018-10-05T16:38:57.264Z,1.70
2018-10-05T16:41:27.037Z,1.37
2018-10-05T16:43:56.480Z,1.50
2018-10-05T16:46:25.876Z,2.17
2018-10-05T16:48:55.925Z,2.87
2018-10-05T16:51:25.720Z,2.50
2018-10-05T16:53:55.090Z,2.30
2018-10-05T16:56:24.502Z,2.67
2018-10-05T16:58:54.918Z,1.93
2018-10-05T17:01:24.405Z,1.80
2018-10-05T17:03:54.320Z,2.10
2018-10-05T17:06:23.857Z,2.20
2018-10-05T17:08:56.534Z,2.57
2018-10-05T17:11:25.998Z,2.77
2018-10-05T17:13:56.355Z,2.50
2018-10-05T17:16:25.962Z,3.10
2018-10-05T17:18:55.370Z,2.70
2018-10-05T17:21:25.855Z,2.47
2018-10-05T17:23:55.066Z,2.30
2018-10-05T17:26:24.267Z,2.50
2018-10-05T17:28:53.438Z,2.67
2018-10-05T17:31:30.872Z,3.13
2018-10-05T17:34:01.157Z,3.47
2018-10-05T17:36:30.372Z,3.07
2018-10-05T17:38:59.513Z,3.17
2018-10-05T17:41:28.913Z,2.43
2018-10-05T17:43:58.210Z,2.57
2018-10-05T17:46:27.239Z,3.40
2018-10-05T17:48:56.688Z,3.80
2018-10-05T17:51:26.123Z,4.37
2018-10-05T17:53:55.327Z,4.23
2018-10-05T17:56:24.567Z,3.80
2018-10-05T17:58:53.717Z,3.33
2018-10-05T18:01:22.825Z,3.60
2018-10-05T18:03:52.060Z,3.50
2018-10-05T18:06:21.377Z,3.63
2018-10-05T18:08:50.622Z,3.63
2018-10-05T18:11:20.918Z,3.20
2018-10-05T18:13:50.202Z,2.70
2018-10-05T18:16:19.929Z,2.83
2018-10-05T18:18:49.007Z,2.70
2018-10-05T18:21:18.678Z,3.67
2018-10-05T18:23:47.847Z,3.20
2018-10-05T18:26:17.286Z,3.17
2018-10-05T18:28:46.625Z,3.67
2018-10-05T18:31:16.044Z,4.87
2018-10-05T18:33:45.410Z,5.77
2018-10-05T18:36:14.734Z,5.10
2018-10-05T18:38:45.292Z,4.10
2018-10-05T18:41:14.723Z,4.40
2018-10-05T18:43:44.435Z,3.70
2018-10-05T18:46:13.839Z,4.73
2018-10-05T18:48:43.377Z,5.07
2018-10-05T18:51:12.772Z,5.80
2018-10-05T18:53:43.736Z,4.70
2018-10-05T18:56:24.306Z,4.60
2018-10-05T18:58:53.960Z,4.50
2018-10-05T19:01:23.513Z,6.00
2018-10-05T19:03:53.243Z,5.53
2018-10-05T19:06:22.928Z,5.73
2018-10-05T19:08:52.008Z,5.03
2018-10-05T19:11:21.294Z,4.87
2018-10-05T19:13:50.648Z,5.73
2018-10-05T19:16:20.142Z,5.57
2018-10-05T19:18:50.708Z,5.50
2018-10-05T19:21:19.922Z,5.43
2018-10-05T19:23:49.818Z,6.07
2018-10-05T19:26:20.218Z,4.90
2018-10-05T19:28:49.602Z,4.53
2018-10-05T19:31:19.680Z,4.13
2018-10-05T19:33:52.190Z,4.77
2018-10-05T19:36:21.975Z,4.83
2018-10-05T19:38:51.504Z,4.67
2018-10-05T19:41:21.163Z,4.50
2018-10-05T19:43:50.575Z,4.47
2018-10-05T19:46:19.943Z,4.40
2018-10-05T19:48:48.979Z,3.90
2018-10-05T19:51:18.262Z,3.43
2018-10-05T19:53:47.430Z,4.60
2018-10-05T19:56:16.705Z,3.90
2018-10-05T19:58:46.131Z,4.67
2018-10-05T20:01:15.411Z,4.13
2018-10-05T20:03:44.571Z,4.00
2018-10-05T20:06:13.875Z,4.40
2018-10-05T20:08:43.209Z,3.73
2018-10-05T20:11:12.605Z,3.27
2018-10-05T20:13:41.865Z,3.90
2018-10-05T20:16:13.522Z,3.80
2018-10-05T20:18:42.868Z,5.37
2018-10-05T20:21:12.075Z,4.20
2018-10-05T20:23:41.245Z,4.20
2018-10-05T20:26:10.282Z,4.70
2018-10-05T20:28:39.866Z,4.00
2018-10-05T20:31:09.482Z,3.73
2018-10-05T20:33:39.098Z,4.60
2018-10-05T20:36:08.377Z,4.60
2018-10-05T20:38:38.234Z,3.90
2018-10-05T20:41:07.489Z,4.83
2018-10-05T20:43:36.549Z,3.97
2018-10-05T20:46:06.122Z,4.20
2018-10-05T20:48:35.488Z,3.77
2018-10-05T20:51:04.926Z,4.90
2018-10-05T20:53:34.292Z,7.00
2018-10-05T20:56:03.702Z,5.40
2018-10-05T20:58:33.022Z,5.37
2018-10-05T21:01:03.037Z,5.10
2018-10-05T21:03:32.331Z,5.27
2018-10-05T21:06:01.786Z,6.90
2018-10-05T21:08:31.168Z,5.40
2018-10-05T21:11:00.320Z,5.43
2018-10-05T21:13:29.357Z,6.70
2018-10-05T21:15:58.334Z,6.60
2018-10-05T21:18:27.642Z,7.10
2018-10-05T21:20:56.773Z,7.00
2018-10-05T21:23:27.550Z,7.27
2018-10-05T21:25:56.800Z,6.17
2018-10-05T21:28:26.217Z,5.97
2018-10-05T21:30:55.522Z,5.57
2018-10-05T21:33:24.676Z,4.93
2018-10-05T21:35:53.765Z,5.87
2018-10-05T21:38:22.747Z,6.00
2018-10-05T21:40:52.510Z,6.30
2018-10-05T21:43:21.618Z,6.50
2018-10-05T21:45:50.634Z,6.97
2018-10-05T21:48:19.992Z,7.00
2018-10-05T21:50:49.338Z,6.60
2018-10-05T21:53:18.344Z,6.30
2018-10-05T21:55:47.536Z,7.43
2018-10-05T21:58:16.664Z,6.40
2018-10-05T22:00:45.737Z,6.43
2018-10-05T22:03:14.825Z,6.07
2018-10-05T22:05:45.950Z,6.30
2018-10-05T22:08:15.138Z,6.40
2018-10-05T22:10:44.076Z,6.73
2018-10-05T22:13:13.294Z,6.03
2018-10-05T22:15:42.298Z,7.47
2018-10-05T22:18:12.543Z,6.23
2018-10-05T22:20:41.738Z,6.30
2018-10-05T22:23:10.880Z,7.07
2018-10-05T22:25:39.860Z,7.30
2018-10-05T22:28:09.572Z,7.00
2018-10-05T22:30:39.083Z,6.83
2018-10-05T22:33:08.927Z,6.43
2018-10-05T22:35:37.913Z,5.90
2018-10-05T22:38:07.809Z,6.37
2018-10-05T22:40:37.068Z,6.37
2018-10-05T22:43:06.767Z,6.63
2018-10-05T22:45:36.308Z,6.20
2018-10-05T22:48:05.657Z,6.63
2018-10-05T22:50:35.040Z,6.30
2018-10-05T22:53:04.446Z,6.03
2018-10-05T22:55:34.188Z,6.40
2018-10-05T22:58:03.271Z,6.83
2018-10-05T23:00:32.467Z,5.97
2018-10-05T23:03:01.666Z,6.23
2018-10-05T23:05:30.605Z,6.80
2018-10-05T23:07:59.690Z,8.43
2018-10-05T23:10:29.212Z,8.97
2018-10-05T23:12:58.695Z,7.23
2018-10-05T23:15:27.928Z,7.00
2018-10-05T23:17:56.991Z,8.90
2018-10-05T23:20:26.641Z,9.10
2018-10-05T23:22:55.702Z,8.67
2018-10-05T23:25:26.568Z,8.00
2018-10-05T23:27:56.143Z,8.40
2018-10-05T23:30:25.792Z,8.40
2018-10-05T23:32:55.205Z,7.67
2018-10-05T23:35:24.245Z,7.10
2018-10-05T23:37:53.361Z,7.00
2018-10-05T23:40:22.649Z,7.73
2018-10-05T23:42:52.104Z,8.07
2018-10-05T23:45:21.044Z,7.23
2018-10-05T23:47:50.092Z,6.60
2018-10-05T23:50:19.136Z,7.13
2018-10-05T23:52:49.607Z,7.83
2018-10-05T23:55:19.109Z,7.43
2018-10-05T23:57:48.998Z,6.87
